sensor_id;sensor_type;location;lat;lon;timestamp;P1;durP1;ratioP1;P2;durP2;ratioP2
71187;SDS011;58893;53.130;8.158;2023-03-01T00:02:03;34.17;;;11.37;;
71187;SDS011;58893;53.130;8.158;2023-03-01T00:04:29;23.47;;;11.17;;
71187;SDS011;58893;53.130;8.158;2023-03-01T00:06:55;22.43;;;10.10;;
71187;SDS011;58893;53.130;8.158;2023-03-01T00:09:21;31.07;;;10.63;;
71187;SDS011;58893;53.130;8.158;2023-03-01T00:11:47;26.67;;;10.87;;
71187;SDS011;58893;53.130;8.158;2023-03-01T00:14:13;23.17;;;10.57;;
71187;SDS011;58893;53.130;8.158;2023-03-01T00:16:40;17.93;;;10.17;;
71187;SDS011;58893;53.130;8.158;2023-03-01T00:19:08;19.97;;;10.70;;
71187;SDS011;58893;53.130;8.158;2023-03-01T00:21:37;24.50;;;9.40;;
71187;SDS011;58893;53.130;8.158;2023-03-01T00:24:03;28.33;;;11.87;;
71187;SDS011;58893;53.130;8.158;2023-03-01T00:26:29;26.90;;;10.80;;
71187;SDS011;58893;53.130;8.158;2023-03-01T00:28:56;21.03;;;10.63;;
71187;SDS011;58893;53.130;8.158;2023-03-01T00:31:23;18.27;;;10.40;;
71187;SDS011;58893;53.130;8.158;2023-03-01T00:33:53;23.10;;;10.03;;
71187;SDS011;58893;53.130;8.158;2023-03-01T00:36:22;25.37;;;11.10;;
71187;SDS011;58893;53.130;8.158;2023-03-01T00:38:49;19.07;;;10.67;;
71187;SDS011;58893;53.130;8.158;2023-03-01T00:41:15;21.53;;;10.00;;
71187;SDS011;58893;53.130;8.158;2023-03-01T00:43:43;19.77;;;10.53;;
71187;SDS011;58893;53.130;8.158;2023-03-01T00:46:10;22.27;;;10.80;;
71187;SDS011;58893;53.130;8.158;2023-03-01T00:48:38;29.40;;;11.10;;
71187;SDS011;58893;53.130;8.158;2023-03-01T00:51:04;19.10;;;10.10;;
71187;SDS011;58893;53.130;8.158;2023-03-01T00:53:31;24.50;;;11.20;;
71187;SDS011;58893;53.130;8.158;2023-03-01T00:55:57;25.87;;;10.40;;
71187;SDS011;58893;53.130;8.158;2023-03-01T00:58:23;18.37;;;10.07;;
71187;SDS011;58893;53.130;8.158;2023-03-01T01:00:50;19.67;;;10.30;;
71187;SDS011;58893;53.130;8.158;2023-03-01T01:03:17;18.97;;;9.67;;
71187;SDS011;58893;53.130;8.158;2023-03-01T01:05:43;21.97;;;9.70;;
71187;SDS011;58893;53.130;8.158;2023-03-01T01:08:09;21.67;;;10.80;;
71187;SDS011;58893;53.130;8.158;2023-03-01T01:10:34;21.47;;;9.73;;
71187;SDS011;58893;53.130;8.158;2023-03-01T01:13:00;23.63;;;10.77;;
71187;SDS011;58893;53.130;8.158;2023-03-01T01:15:26;21.17;;;9.97;;
71187;SDS011;58893;53.130;8.158;2023-03-01T01:17:52;23.40;;;10.03;;
71187;SDS011;58893;53.130;8.158;2023-03-01T01:20:17;22.27;;;9.93;;
71187;SDS011;58893;53.130;8.158;2023-03-01T01:22:43;25.73;;;10.97;;
71187;SDS011;58893;53.130;8.158;2023-03-01T01:25:09;22.67;;;10.23;;
71187;SDS011;58893;53.130;8.158;2023-03-01T01:27:35;17.40;;;9.13;;
71187;SDS011;58893;53.130;8.158;2023-03-01T01:30:01;27.43;;;12.53;;
71187;SDS011;58893;53.130;8.158;2023-03-01T01:32:28;21.33;;;9.57;;
71187;SDS011;58893;53.130;8.158;2023-03-01T01:34:54;19.33;;;10.10;;
71187;SDS011;58893;53.130;8.158;2023-03-01T01:37:19;22.83;;;9.07;;
71187;SDS011;58893;53.130;8.158;2023-03-01T01:39:45;22.20;;;9.50;;
71187;SDS011;58893;53.130;8.158;2023-03-01T01:42:13;22.70;;;9.50;;
71187;SDS011;58893;53.130;8.158;2023-03-01T01:44:41;20.23;;;10.27;;
71187;SDS011;58893;53.130;8.158;2023-03-01T01:47:17;25.77;;;10.83;;
71187;SDS011;58893;53.130;8.158;2023-03-01T01:49:48;24.30;;;10.00;;
71187;SDS011;58893;53.130;8.158;2023-03-01T01:52:23;22.07;;;9.90;;
71187;SDS011;58893;53.130;8.158;2023-03-01T01:57:32;27.67;;;9.90;;
71187;SDS011;58893;53.130;8.158;2023-03-01T02:00:07;20.73;;;9.83;;
71187;SDS011;58893;53.130;8.158;2023-03-01T02:02:36;21.57;;;9.40;;
71187;SDS011;58893;53.130;8.158;2023-03-01T02:05:06;22.17;;;10.00;;
71187;SDS011;58893;53.130;8.158;2023-03-01T02:07:51;18.67;;;8.70;;
71187;SDS011;58893;53.130;8.158;2023-03-01T02:10:18;19.00;;;9.90;;
71187;SDS011;58893;53.130;8.158;2023-03-01T02:12:44;24.63;;;10.17;;
71187;SDS011;58893;53.130;8.158;2023-03-01T02:15:10;23.27;;;10.87;;
71187;SDS011;58893;53.130;8.158;2023-03-01T02:17:36;24.47;;;12.90;;
71187;SDS011;58893;53.130;8.158;2023-03-01T02:20:07;29.53;;;13.00;;
71187;SDS011;58893;53.130;8.158;2023-03-01T02:22:43;26.50;;;12.50;;
71187;SDS011;58893;53.130;8.158;2023-03-01T02:28:04;37.20;;;14.73;;
71187;SDS011;58893;53.130;8.158;2023-03-01T02:30:31;36.30;;;14.07;;
71187;SDS011;58893;53.130;8.158;2023-03-01T02:32:58;42.97;;;16.27;;
71187;SDS011;58893;53.130;8.158;2023-03-01T02:35:28;32.77;;;12.17;;
71187;SDS011;58893;53.130;8.158;2023-03-01T02:37:57;41.70;;;15.63;;
71187;SDS011;58893;53.130;8.158;2023-03-01T02:40:25;29.07;;;12.40;;
71187;SDS011;58893;53.130;8.158;2023-03-01T02:42:56;34.23;;;13.33;;
71187;SDS011;58893;53.130;8.158;2023-03-01T02:45:23;30.50;;;14.17;;
71187;SDS011;58893;53.130;8.158;2023-03-01T02:47:50;30.03;;;12.00;;
71187;SDS011;58893;53.130;8.158;2023-03-01T02:50:23;27.80;;;12.27;;
71187;SDS011;58893;53.130;8.158;2023-03-01T02:52:55;25.70;;;12.30;;
71187;SDS011;58893;53.130;8.158;2023-03-01T02:55:27;27.73;;;11.30;;
71187;SDS011;58893;53.130;8.158;2023-03-01T02:57:53;22.53;;;10.77;;
71187;SDS011;58893;53.130;8.158;2023-03-01T03:00:21;28.63;;;11.10;;
71187;SDS011;58893;53.130;8.158;2023-03-01T03:02:52;26.30;;;10.40;;
71187;SDS011;58893;53.130;8.158;2023-03-01T03:05:29;31.00;;;11.70;;
71187;SDS011;58893;53.130;8.158;2023-03-01T03:07:56;25.93;;;10.50;;
71187;SDS011;58893;53.130;8.158;2023-03-01T03:10:26;22.83;;;10.60;;
71187;SDS011;58893;53.130;8.158;2023-03-01T03:12:55;36.07;;;14.00;;
71187;SDS011;58893;53.130;8.158;2023-03-01T03:15:22;28.03;;;11.17;;
71187;SDS011;58893;53.130;8.158;2023-03-01T03:17:49;24.87;;;11.50;;
71187;SDS011;58893;53.130;8.158;2023-03-01T03:20:17;25.00;;;11.00;;
71187;SDS011;58893;53.130;8.158;2023-03-01T03:22:45;25.40;;;11.80;;
71187;SDS011;58893;53.130;8.158;2023-03-01T03:25:12;28.20;;;11.60;;
71187;SDS011;58893;53.130;8.158;2023-03-01T03:27:38;24.90;;;11.73;;
71187;SDS011;58893;53.130;8.158;2023-03-01T03:30:06;27.20;;;11.63;;
71187;SDS011;58893;53.130;8.158;2023-03-01T03:32:36;25.93;;;10.63;;
71187;SDS011;58893;53.130;8.158;2023-03-01T03:35:03;26.10;;;12.20;;
71187;SDS011;58893;53.130;8.158;2023-03-01T03:37:35;21.50;;;10.13;;
71187;SDS011;58893;53.130;8.158;2023-03-01T03:40:20;27.60;;;10.63;;
71187;SDS011;58893;53.130;8.158;2023-03-01T03:42:45;18.60;;;10.50;;
71187;SDS011;58893;53.130;8.158;2023-03-01T03:45:11;22.90;;;11.77;;
71187;SDS011;58893;53.130;8.158;2023-03-01T03:47:37;29.27;;;10.67;;
71187;SDS011;58893;53.130;8.158;2023-03-01T03:50:02;27.93;;;11.77;;
71187;SDS011;58893;53.130;8.158;2023-03-01T03:52:28;25.73;;;11.83;;
71187;SDS011;58893;53.130;8.158;2023-03-01T03:54:54;28.33;;;12.90;;
71187;SDS011;58893;53.130;8.158;2023-03-01T03:57:19;27.13;;;12.00;;
71187;SDS011;58893;53.130;8.158;2023-03-01T03:59:46;23.97;;;11.20;;
71187;SDS011;58893;53.130;8.158;2023-03-01T04:02:11;26.00;;;10.57;;
71187;SDS011;58893;53.130;8.158;2023-03-01T04:04:37;23.23;;;12.10;;
71187;SDS011;58893;53.130;8.158;2023-03-01T04:07:02;25.80;;;11.23;;
71187;SDS011;58893;53.130;8.158;2023-03-01T04:09:28;22.77;;;11.90;;
71187;SDS011;58893;53.130;8.158;2023-03-01T04:11:55;27.37;;;10.77;;
71187;SDS011;58893;53.130;8.158;2023-03-01T04:14:20;21.67;;;12.20;;
71187;SDS011;58893;53.130;8.158;2023-03-01T04:16:46;23.33;;;10.70;;
71187;SDS011;58893;53.130;8.158;2023-03-01T04:19:12;21.30;;;9.90;;
71187;SDS011;58893;53.130;8.158;2023-03-01T04:21:40;21.40;;;10.03;;
71187;SDS011;58893;53.130;8.158;2023-03-01T04:24:05;19.33;;;10.00;;
71187;SDS011;58893;53.130;8.158;2023-03-01T04:26:31;20.07;;;9.17;;
71187;SDS011;58893;53.130;8.158;2023-03-01T04:28:57;15.00;;;9.17;;
71187;SDS011;58893;53.130;8.158;2023-03-01T04:31:22;21.57;;;10.10;;
71187;SDS011;58893;53.130;8.158;2023-03-01T04:33:52;25.43;;;9.77;;
71187;SDS011;58893;53.130;8.158;2023-03-01T04:36:24;24.40;;;10.50;;
71187;SDS011;58893;53.130;8.158;2023-03-01T04:38:52;19.87;;;9.97;;
71187;SDS011;58893;53.130;8.158;2023-03-01T04:41:19;18.10;;;9.20;;
71187;SDS011;58893;53.130;8.158;2023-03-01T04:43:46;17.67;;;9.53;;
71187;SDS011;58893;53.130;8.158;2023-03-01T04:46:14;17.80;;;9.87;;
71187;SDS011;58893;53.130;8.158;2023-03-01T04:48:42;17.43;;;8.83;;
71187;SDS011;58893;53.130;8.158;2023-03-01T04:51:08;21.20;;;9.77;;
71187;SDS011;58893;53.130;8.158;2023-03-01T04:53:34;24.40;;;10.80;;
71187;SDS011;58893;53.130;8.158;2023-03-01T04:56:03;14.87;;;8.17;;
71187;SDS011;58893;53.130;8.158;2023-03-01T04:58:29;20.80;;;9.80;;
71187;SDS011;58893;53.130;8.158;2023-03-01T05:00:55;27.60;;;10.30;;
71187;SDS011;58893;53.130;8.158;2023-03-01T05:03:21;21.93;;;9.90;;
71187;SDS011;58893;53.130;8.158;2023-03-01T05:05:48;16.17;;;8.87;;
71187;SDS011;58893;53.130;8.158;2023-03-01T05:08:15;20.23;;;10.17;;
71187;SDS011;58893;53.130;8.158;2023-03-01T05:10:48;21.77;;;10.50;;
71187;SDS011;58893;53.130;8.158;2023-03-01T05:13:18;23.33;;;10.00;;
71187;SDS011;58893;53.130;8.158;2023-03-01T05:15:57;28.38;;;10.27;;
71187;SDS011;58893;53.130;8.158;2023-03-01T05:18:24;25.27;;;10.40;;
71187;SDS011;58893;53.130;8.158;2023-03-01T05:20:51;20.35;;;10.63;;
71187;SDS011;58893;53.130;8.158;2023-03-01T05:23:23;19.90;;;8.27;;
71187;SDS011;58893;53.130;8.158;2023-03-01T05:25:49;18.67;;;9.47;;
71187;SDS011;58893;53.130;8.158;2023-03-01T05:28:17;22.37;;;11.10;;
71187;SDS011;58893;53.130;8.158;2023-03-01T05:30:44;19.77;;;10.70;;
71187;SDS011;58893;53.130;8.158;2023-03-01T05:33:10;24.87;;;11.27;;
71187;SDS011;58893;53.130;8.158;2023-03-01T05:35:38;33.17;;;12.17;;
71187;SDS011;58893;53.130;8.158;2023-03-01T05:38:06;23.43;;;10.80;;
71187;SDS011;58893;53.130;8.158;2023-03-01T05:40:32;25.97;;;10.30;;
71187;SDS011;58893;53.130;8.158;2023-03-01T05:42:59;21.60;;;10.10;;
71187;SDS011;58893;53.130;8.158;2023-03-01T05:45:25;19.30;;;9.73;;
71187;SDS011;58893;53.130;8.158;2023-03-01T05:47:52;26.87;;;11.03;;
71187;SDS011;58893;53.130;8.158;2023-03-01T05:50:24;21.73;;;10.80;;
71187;SDS011;58893;53.130;8.158;2023-03-01T05:52:54;20.40;;;10.10;;
71187;SDS011;58893;53.130;8.158;2023-03-01T05:55:26;23.70;;;10.00;;
71187;SDS011;58893;53.130;8.158;2023-03-01T05:57:52;21.67;;;10.10;;
71187;SDS011;58893;53.130;8.158;2023-03-01T06:00:19;21.83;;;10.00;;
71187;SDS011;58893;53.130;8.158;2023-03-01T06:02:47;27.77;;;10.52;;
71187;SDS011;58893;53.130;8.158;2023-03-01T06:05:13;22.07;;;9.80;;
71187;SDS011;58893;53.130;8.158;2023-03-01T06:07:39;23.23;;;10.50;;
71187;SDS011;58893;53.130;8.158;2023-03-01T06:10:06;19.00;;;9.48;;
71187;SDS011;58893;53.130;8.158;2023-03-01T06:12:34;23.60;;;9.80;;
71187;SDS011;58893;53.130;8.158;2023-03-01T06:15:01;24.33;;;9.32;;
71187;SDS011;58893;53.130;8.158;2023-03-01T06:17:28;21.95;;;10.25;;
71187;SDS011;58893;53.130;8.158;2023-03-01T06:19:55;22.02;;;10.40;;
71187;SDS011;58893;53.130;8.158;2023-03-01T06:22:20;24.13;;;11.20;;
71187;SDS011;58893;53.130;8.158;2023-03-01T06:24:46;18.17;;;8.30;;
71187;SDS011;58893;53.130;8.158;2023-03-01T06:27:11;20.40;;;9.13;;
71187;SDS011;58893;53.130;8.158;2023-03-01T06:29:37;15.70;;;8.83;;
71187;SDS011;58893;53.130;8.158;2023-03-01T06:32:03;24.03;;;9.23;;
71187;SDS011;58893;53.130;8.158;2023-03-01T06:34:29;25.33;;;10.83;;
71187;SDS011;58893;53.130;8.158;2023-03-01T06:36:54;22.20;;;9.07;;
71187;SDS011;58893;53.130;8.158;2023-03-01T06:39:20;25.47;;;10.07;;
71187;SDS011;58893;53.130;8.158;2023-03-01T06:41:45;19.97;;;9.53;;
71187;SDS011;58893;53.130;8.158;2023-03-01T06:44:11;16.50;;;8.90;;
71187;SDS011;58893;53.130;8.158;2023-03-01T06:46:38;17.87;;;9.00;;
71187;SDS011;58893;53.130;8.158;2023-03-01T06:49:04;19.08;;;8.80;;
71187;SDS011;58893;53.130;8.158;2023-03-01T06:51:34;14.50;;;8.00;;
71187;SDS011;58893;53.130;8.158;2023-03-01T06:54:00;25.10;;;10.25;;
71187;SDS011;58893;53.130;8.158;2023-03-01T06:56:26;26.40;;;9.60;;
71187;SDS011;58893;53.130;8.158;2023-03-01T06:58:51;24.70;;;10.40;;
71187;SDS011;58893;53.130;8.158;2023-03-01T07:01:17;19.10;;;9.10;;
71187;SDS011;58893;53.130;8.158;2023-03-01T07:03:43;22.83;;;10.00;;
71187;SDS011;58893;53.130;8.158;2023-03-01T07:06:09;18.92;;;9.30;;
71187;SDS011;58893;53.130;8.158;2023-03-01T07:08:35;19.57;;;9.60;;
71187;SDS011;58893;53.130;8.158;2023-03-01T07:11:01;24.83;;;10.70;;
71187;SDS011;58893;53.130;8.158;2023-03-01T07:13:28;32.40;;;11.13;;
71187;SDS011;58893;53.130;8.158;2023-03-01T07:15:53;32.17;;;9.00;;
71187;SDS011;58893;53.130;8.158;2023-03-01T07:18:19;19.40;;;9.23;;
71187;SDS011;58893;53.130;8.158;2023-03-01T07:20:45;25.27;;;9.57;;
71187;SDS011;58893;53.130;8.158;2023-03-01T07:23:10;27.43;;;11.17;;
71187;SDS011;58893;53.130;8.158;2023-03-01T07:25:36;18.97;;;10.20;;
71187;SDS011;58893;53.130;8.158;2023-03-01T07:28:02;24.10;;;10.40;;
71187;SDS011;58893;53.130;8.158;2023-03-01T07:30:27;29.80;;;12.00;;
71187;SDS011;58893;53.130;8.158;2023-03-01T07:32:56;28.63;;;12.13;;
71187;SDS011;58893;53.130;8.158;2023-03-01T07:35:23;30.27;;;11.30;;
71187;SDS011;58893;53.130;8.158;2023-03-01T07:37:51;34.60;;;12.27;;
71187;SDS011;58893;53.130;8.158;2023-03-01T07:40:17;23.67;;;10.93;;
71187;SDS011;58893;53.130;8.158;2023-03-01T07:42:43;21.17;;;11.07;;
71187;SDS011;58893;53.130;8.158;2023-03-01T07:45:08;26.50;;;12.50;;
71187;SDS011;58893;53.130;8.158;2023-03-01T07:47:34;23.60;;;10.37;;
71187;SDS011;58893;53.130;8.158;2023-03-01T07:50:00;23.00;;;10.30;;
71187;SDS011;58893;53.130;8.158;2023-03-01T07:52:27;23.23;;;11.17;;
71187;SDS011;58893;53.130;8.158;2023-03-01T07:54:53;28.33;;;13.73;;
71187;SDS011;58893;53.130;8.158;2023-03-01T07:57:19;29.67;;;13.07;;
71187;SDS011;58893;53.130;8.158;2023-03-01T07:59:45;27.07;;;13.07;;
71187;SDS011;58893;53.130;8.158;2023-03-01T08:02:10;37.53;;;15.40;;
71187;SDS011;58893;53.130;8.158;2023-03-01T08:04:36;36.40;;;14.93;;
71187;SDS011;58893;53.130;8.158;2023-03-01T08:07:04;32.17;;;13.27;;
71187;SDS011;58893;53.130;8.158;2023-03-01T08:09:30;25.93;;;12.30;;
71187;SDS011;58893;53.130;8.158;2023-03-01T08:11:56;36.07;;;13.60;;
71187;SDS011;58893;53.130;8.158;2023-03-01T08:14:25;29.60;;;12.90;;
71187;SDS011;58893;53.130;8.158;2023-03-01T08:16:51;28.37;;;12.30;;
71187;SDS011;58893;53.130;8.158;2023-03-01T08:19:17;33.43;;;14.07;;
71187;SDS011;58893;53.130;8.158;2023-03-01T08:21:43;29.57;;;13.63;;
71187;SDS011;58893;53.130;8.158;2023-03-01T08:24:08;26.87;;;12.37;;
71187;SDS011;58893;53.130;8.158;2023-03-01T08:26:37;27.97;;;13.57;;
71187;SDS011;58893;53.130;8.158;2023-03-01T08:29:03;33.63;;;15.87;;
71187;SDS011;58893;53.130;8.158;2023-03-01T08:31:30;37.37;;;14.37;;
71187;SDS011;58893;53.130;8.158;2023-03-01T08:34:05;32.10;;;14.20;;
71187;SDS011;58893;53.130;8.158;2023-03-01T08:36:37;32.53;;;13.50;;
71187;SDS011;58893;53.130;8.158;2023-03-01T08:39:05;31.17;;;13.77;;
71187;SDS011;58893;53.130;8.158;2023-03-01T08:41:31;32.90;;;14.80;;
71187;SDS011;58893;53.130;8.158;2023-03-01T08:43:57;39.23;;;15.27;;
71187;SDS011;58893;53.130;8.158;2023-03-01T08:46:29;30.43;;;15.33;;
71187;SDS011;58893;53.130;8.158;2023-03-01T08:49:05;28.33;;;13.87;;
71187;SDS011;58893;53.130;8.158;2023-03-01T08:51:41;40.23;;;14.87;;
71187;SDS011;58893;53.130;8.158;2023-03-01T08:54:10;31.43;;;12.33;;
71187;SDS011;58893;53.130;8.158;2023-03-01T08:56:40;31.77;;;12.70;;
71187;SDS011;58893;53.130;8.158;2023-03-01T08:59:06;29.13;;;12.30;;
71187;SDS011;58893;53.130;8.158;2023-03-01T09:01:32;24.50;;;12.17;;
71187;SDS011;58893;53.130;8.158;2023-03-01T09:03:58;33.63;;;14.10;;
71187;SDS011;58893;53.130;8.158;2023-03-01T09:06:24;27.00;;;12.97;;
71187;SDS011;58893;53.130;8.158;2023-03-01T09:08:49;27.47;;;12.93;;
71187;SDS011;58893;53.130;8.158;2023-03-01T09:11:20;27.80;;;12.47;;
71187;SDS011;58893;53.130;8.158;2023-03-01T09:13:46;23.33;;;12.17;;
71187;SDS011;58893;53.130;8.158;2023-03-01T09:16:14;28.47;;;13.47;;
71187;SDS011;58893;53.130;8.158;2023-03-01T09:18:42;31.40;;;14.30;;
71187;SDS011;58893;53.130;8.158;2023-03-01T09:21:15;25.13;;;13.80;;
71187;SDS011;58893;53.130;8.158;2023-03-01T09:23:42;28.70;;;11.57;;
71187;SDS011;58893;53.130;8.158;2023-03-01T09:26:13;21.27;;;10.60;;
71187;SDS011;58893;53.130;8.158;2023-03-01T09:28:44;22.90;;;12.13;;
71187;SDS011;58893;53.130;8.158;2023-03-01T09:31:11;31.87;;;12.70;;
71187;SDS011;58893;53.130;8.158;2023-03-01T09:33:38;27.27;;;11.67;;
71187;SDS011;58893;53.130;8.158;2023-03-01T09:36:05;25.87;;;11.47;;
71187;SDS011;58893;53.130;8.158;2023-03-01T09:38:33;25.60;;;12.70;;
71187;SDS011;58893;53.130;8.158;2023-03-01T09:41:00;25.77;;;11.90;;
71187;SDS011;58893;53.130;8.158;2023-03-01T09:43:31;21.63;;;10.73;;
71187;SDS011;58893;53.130;8.158;2023-03-01T09:46:10;28.53;;;10.90;;
71187;SDS011;58893;53.130;8.158;2023-03-01T09:49:24;19.30;;;9.30;;
71187;SDS011;58893;53.130;8.158;2023-03-01T09:51:31;14.17;;;8.03;;
71187;SDS011;58893;53.130;8.158;2023-03-01T09:53:58;21.70;;;7.13;;
71187;SDS011;58893;53.130;8.158;2023-03-01T09:56:34;14.47;;;7.07;;
71187;SDS011;58893;53.130;8.158;2023-03-01T10:01:54;14.90;;;6.93;;
71187;SDS011;58893;53.130;8.158;2023-03-01T10:09:36;11.83;;;5.10;;
71187;SDS011;58893;53.130;8.158;2023-03-01T10:12:04;9.97;;;4.57;;
71187;SDS011;58893;53.130;8.158;2023-03-01T10:14:39;13.60;;;5.67;;
71187;SDS011;58893;53.130;8.158;2023-03-01T10:17:31;14.47;;;6.10;;
71187;SDS011;58893;53.130;8.158;2023-03-01T10:22:48;11.37;;;5.30;;
71187;SDS011;58893;53.130;8.158;2023-03-01T10:28:04;7.00;;;4.40;;
71187;SDS011;58893;53.130;8.158;2023-03-01T10:30:36;10.57;;;5.67;;
71187;SDS011;58893;53.130;8.158;2023-03-01T10:36:00;9.57;;;4.70;;
71187;SDS011;58893;53.130;8.158;2023-03-01T10:38:26;11.80;;;4.80;;
71187;SDS011;58893;53.130;8.158;2023-03-01T10:40:59;8.40;;;4.47;;
71187;SDS011;58893;53.130;8.158;2023-03-01T10:43:43;8.50;;;4.13;;
71187;SDS011;58893;53.130;8.158;2023-03-01T10:49:06;12.53;;;5.40;;
71187;SDS011;58893;53.130;8.158;2023-03-01T10:51:39;8.67;;;4.83;;
71187;SDS011;58893;53.130;8.158;2023-03-01T10:54:06;12.43;;;5.80;;
71187;SDS011;58893;53.130;8.158;2023-03-01T10:56:53;13.77;;;6.63;;
71187;SDS011;58893;53.130;8.158;2023-03-01T11:02:03;15.73;;;7.07;;
71187;SDS011;58893;53.130;8.158;2023-03-01T11:04:37;15.20;;;7.40;;
71187;SDS011;58893;53.130;8.158;2023-03-01T11:07:03;10.97;;;5.80;;
71187;SDS011;58893;53.130;8.158;2023-03-01T11:09:32;14.57;;;7.03;;
71187;SDS011;58893;53.130;8.158;2023-03-01T11:12:03;11.80;;;6.27;;
71187;SDS011;58893;53.130;8.158;2023-03-01T11:14:33;21.20;;;8.10;;
71187;SDS011;58893;53.130;8.158;2023-03-01T11:17:05;16.47;;;7.13;;
71187;SDS011;58893;53.130;8.158;2023-03-01T11:19:40;14.23;;;7.17;;
71187;SDS011;58893;53.130;8.158;2023-03-01T11:22:13;13.87;;;8.10;;
71187;SDS011;58893;53.130;8.158;2023-03-01T11:27:20;17.23;;;8.53;;
71187;SDS011;58893;53.130;8.158;2023-03-01T11:32:25;14.97;;;8.37;;
71187;SDS011;58893;53.130;8.158;2023-03-01T11:34:59;14.97;;;7.90;;
71187;SDS011;58893;53.130;8.158;2023-03-01T11:38:32;20.00;;;8.33;;
71187;SDS011;58893;53.130;8.158;2023-03-01T11:40:26;17.53;;;8.13;;
71187;SDS011;58893;53.130;8.158;2023-03-01T11:43:23;23.03;;;10.30;;
71187;SDS011;58893;53.130;8.158;2023-03-01T11:46:40;16.27;;;8.20;;
71187;SDS011;58893;53.130;8.158;2023-03-01T11:51:46;16.57;;;7.50;;
71187;SDS011;58893;53.130;8.158;2023-03-01T11:57:33;18.33;;;8.80;;
71187;SDS011;58893;53.130;8.158;2023-03-01T12:19:23;17.83;;;8.20;;
71187;SDS011;58893;53.130;8.158;2023-03-01T12:22:32;18.77;;;8.73;;
71187;SDS011;58893;53.130;8.158;2023-03-01T12:43:44;18.20;;;9.77;;
71187;SDS011;58893;53.130;8.158;2023-03-01T12:49:08;31.23;;;10.00;;
71187;SDS011;58893;53.130;8.158;2023-03-01T12:51:34;23.50;;;9.50;;
71187;SDS011;58893;53.130;8.158;2023-03-01T12:54:05;15.50;;;8.53;;
71187;SDS011;58893;53.130;8.158;2023-03-01T12:56:44;18.97;;;8.60;;
71187;SDS011;58893;53.130;8.158;2023-03-01T12:59:32;20.83;;;9.60;;
71187;SDS011;58893;53.130;8.158;2023-03-01T13:02:25;26.70;;;11.17;;
71187;SDS011;58893;53.130;8.158;2023-03-01T13:07:44;21.27;;;9.17;;
71187;SDS011;58893;53.130;8.158;2023-03-01T13:15:32;20.77;;;10.10;;
71187;SDS011;58893;53.130;8.158;2023-03-01T13:31:03;17.87;;;9.10;;
71187;SDS011;58893;53.130;8.158;2023-03-01T13:35:58;20.47;;;10.00;;
71187;SDS011;58893;53.130;8.158;2023-03-01T13:41:16;18.00;;;8.67;;
71187;SDS011;58893;53.130;8.158;2023-03-01T13:44:11;20.20;;;9.10;;
71187;SDS011;58893;53.130;8.158;2023-03-01T13:46:49;18.10;;;8.17;;
71187;SDS011;58893;53.130;8.158;2023-03-01T13:49:21;26.50;;;10.47;;
71187;SDS011;58893;53.130;8.158;2023-03-01T13:51:51;25.90;;;10.00;;
71187;SDS011;58893;53.130;8.158;2023-03-01T13:54:28;22.70;;;10.50;;
71187;SDS011;58893;53.130;8.158;2023-03-01T13:56:55;20.60;;;9.87;;
71187;SDS011;58893;53.130;8.158;2023-03-01T13:59:22;21.50;;;10.37;;
71187;SDS011;58893;53.130;8.158;2023-03-01T14:01:52;19.93;;;10.30;;
71187;SDS011;58893;53.130;8.158;2023-03-01T14:07:12;26.50;;;11.10;;
71187;SDS011;58893;53.130;8.158;2023-03-01T14:09:41;21.83;;;9.90;;
71187;SDS011;58893;53.130;8.158;2023-03-01T14:14:59;20.40;;;9.83;;
71187;SDS011;58893;53.130;8.158;2023-03-01T14:20:19;27.00;;;11.00;;
71187;SDS011;58893;53.130;8.158;2023-03-01T14:22:52;27.13;;;11.37;;
71187;SDS011;58893;53.130;8.158;2023-03-01T14:25:25;20.00;;;10.57;;
71187;SDS011;58893;53.130;8.158;2023-03-01T14:30:27;24.23;;;10.00;;
71187;SDS011;58893;53.130;8.158;2023-03-01T14:33:04;26.40;;;10.97;;
71187;SDS011;58893;53.130;8.158;2023-03-01T14:35:35;23.67;;;10.27;;
71187;SDS011;58893;53.130;8.158;2023-03-01T14:38:02;16.70;;;9.00;;
71187;SDS011;58893;53.130;8.158;2023-03-01T14:40:30;24.10;;;11.33;;
71187;SDS011;58893;53.130;8.158;2023-03-01T14:42:59;21.70;;;11.23;;
71187;SDS011;58893;53.130;8.158;2023-03-01T14:45:27;26.40;;;9.60;;
71187;SDS011;58893;53.130;8.158;2023-03-01T14:47:55;19.97;;;10.30;;
71187;SDS011;58893;53.130;8.158;2023-03-01T14:52:55;16.47;;;9.30;;
71187;SDS011;58893;53.130;8.158;2023-03-01T14:58:04;22.37;;;10.10;;
71187;SDS011;58893;53.130;8.158;2023-03-01T15:00:31;20.20;;;10.90;;
71187;SDS011;58893;53.130;8.158;2023-03-01T15:03:05;26.73;;;11.37;;
71187;SDS011;58893;53.130;8.158;2023-03-01T15:05:38;22.90;;;10.47;;
71187;SDS011;58893;53.130;8.158;2023-03-01T15:08:05;23.33;;;11.67;;
71187;SDS011;58893;53.130;8.158;2023-03-01T15:10:32;22.27;;;10.93;;
71187;SDS011;58893;53.130;8.158;2023-03-01T15:13:13;26.70;;;11.70;;
71187;SDS011;58893;53.130;8.158;2023-03-01T15:15:46;26.40;;;12.00;;
71187;SDS011;58893;53.130;8.158;2023-03-01T15:20:43;28.13;;;13.53;;
71187;SDS011;58893;53.130;8.158;2023-03-01T15:23:18;31.10;;;14.27;;
71187;SDS011;58893;53.130;8.158;2023-03-01T15:25:50;32.77;;;13.60;;
71187;SDS011;58893;53.130;8.158;2023-03-01T15:28:21;28.80;;;12.10;;
71187;SDS011;58893;53.130;8.158;2023-03-01T15:31:33;22.50;;;11.90;;
71187;SDS011;58893;53.130;8.158;2023-03-01T15:34:23;27.40;;;11.83;;
71187;SDS011;58893;53.130;8.158;2023-03-01T15:36:52;34.80;;;14.17;;
71187;SDS011;58893;53.130;8.158;2023-03-01T15:41:58;25.60;;;12.07;;
71187;SDS011;58893;53.130;8.158;2023-03-01T15:44:28;30.00;;;14.07;;
71187;SDS011;58893;53.130;8.158;2023-03-01T15:46:56;23.17;;;10.67;;
71187;SDS011;58893;53.130;8.158;2023-03-01T15:52:18;33.00;;;12.80;;
71187;SDS011;58893;53.130;8.158;2023-03-01T15:54:54;28.97;;;13.40;;
71187;SDS011;58893;53.130;8.158;2023-03-01T15:57:30;27.37;;;13.40;;
71187;SDS011;58893;53.130;8.158;2023-03-01T15:59:55;26.10;;;12.73;;
71187;SDS011;58893;53.130;8.158;2023-03-01T16:02:22;30.30;;;12.63;;
71187;SDS011;58893;53.130;8.158;2023-03-01T16:04:49;30.07;;;13.30;;
71187;SDS011;58893;53.130;8.158;2023-03-01T16:07:15;34.13;;;13.57;;
71187;SDS011;58893;53.130;8.158;2023-03-01T16:09:41;33.07;;;14.17;;
71187;SDS011;58893;53.130;8.158;2023-03-01T16:12:11;33.23;;;13.60;;
71187;SDS011;58893;53.130;8.158;2023-03-01T16:14:39;26.53;;;13.47;;
71187;SDS011;58893;53.130;8.158;2023-03-01T16:17:04;28.90;;;13.83;;
71187;SDS011;58893;53.130;8.158;2023-03-01T16:19:30;34.23;;;15.10;;
71187;SDS011;58893;53.130;8.158;2023-03-01T16:21:56;36.00;;;14.50;;
71187;SDS011;58893;53.130;8.158;2023-03-01T16:24:21;27.07;;;13.30;;
71187;SDS011;58893;53.130;8.158;2023-03-01T16:26:47;27.83;;;13.10;;
71187;SDS011;58893;53.130;8.158;2023-03-01T16:29:12;31.07;;;15.73;;
71187;SDS011;58893;53.130;8.158;2023-03-01T16:31:39;36.30;;;16.20;;
71187;SDS011;58893;53.130;8.158;2023-03-01T16:34:05;31.83;;;15.00;;
71187;SDS011;58893;53.130;8.158;2023-03-01T16:36:30;27.50;;;13.17;;
71187;SDS011;58893;53.130;8.158;2023-03-01T16:38:57;29.87;;;13.30;;
71187;SDS011;58893;53.130;8.158;2023-03-01T16:41:25;24.30;;;12.47;;
71187;SDS011;58893;53.130;8.158;2023-03-01T16:43:52;25.03;;;13.47;;
71187;SDS011;58893;53.130;8.158;2023-03-01T16:46:22;37.80;;;14.70;;
71187;SDS011;58893;53.130;8.158;2023-03-01T16:48:51;28.00;;;13.20;;